createdAt,value
2018-08-11T00:00:11.582Z,18.88
2018-08-11T00:03:15.162Z,18.84
2018-08-11T00:06:19.866Z,18.92
2018-08-11T00:09:23.447Z,18.98
2018-08-11T00:12:27.005Z,18.86
2018-08-11T00:15:30.780Z,18.73
2018-08-11T00:18:34.336Z,18.93
2018-08-11T00:21:37.928Z,18.80
2018-08-11T00:24:43.563Z,18.69
2018-08-11T00:27:47.087Z,18.74
2018-08-11T00:30:50.725Z,18.71
2018-08-11T00:33:56.259Z,18.69
2018-08-11T00:36:59.769Z,18.54
2018-08-11T00:40:03.363Z,18.47
2018-08-11T00:43:06.960Z,18.52
2018-08-11T00:46:10.549Z,18.52
2018-08-11T00:49:14.177Z,18.47
2018-08-11T00:52:17.699Z,18.33
2018-08-11T00:55:22.282Z,18.31
2018-08-11T00:58:25.792Z,18.37
2018-08-11T01:01:29.384Z,18.29
2018-08-11T01:04:34.037Z,18.27
2018-08-11T01:07:37.924Z,18.23
2018-08-11T01:10:41.518Z,18.41
2018-08-11T01:13:45.145Z,18.22
2018-08-11T01:16:48.712Z,18.31
2018-08-11T01:19:52.336Z,18.32
2018-08-11T01:22:55.930Z,18.40
2018-08-11T01:25:59.508Z,18.49
2018-08-11T01:29:03.041Z,18.42
2018-08-11T01:32:06.556Z,18.32
2018-08-11T01:35:10.925Z,18.33
2018-08-11T01:38:14.480Z,18.31
2018-08-11T01:41:18.062Z,18.27
2018-08-11T01:44:21.648Z,18.23
2018-08-11T01:47:25.179Z,18.31
2018-08-11T01:50:28.762Z,18.22
2018-08-11T01:53:32.284Z,18.19
2018-08-11T01:56:35.840Z,18.18
2018-08-11T01:59:39.472Z,18.09
2018-08-11T02:02:43.134Z,17.95
2018-08-11T02:05:46.727Z,17.80
2018-08-11T02:08:50.292Z,17.79
2018-08-11T02:11:53.877Z,17.90
2018-08-11T02:14:57.537Z,17.73
2018-08-11T02:18:01.089Z,17.61
2018-08-11T02:21:04.681Z,17.75
2018-08-11T02:24:08.474Z,17.68
2018-08-11T02:27:12.021Z,17.80
2018-08-11T02:30:17.729Z,17.69
2018-08-11T02:33:21.255Z,17.57
2018-08-11T02:36:24.916Z,17.43
2018-08-11T02:39:28.441Z,17.33
2018-08-11T02:42:32.027Z,17.37
2018-08-11T02:45:36.645Z,17.34
2018-08-11T02:48:40.177Z,17.36
2018-08-11T02:51:43.724Z,17.45
2018-08-11T02:54:47.280Z,17.46
2018-08-11T02:57:50.874Z,17.44
2018-08-11T03:00:54.426Z,17.52
2018-08-11T03:03:57.984Z,17.57
2018-08-11T03:07:03.624Z,17.53
2018-08-11T03:10:08.660Z,17.65
2018-08-11T03:13:12.237Z,17.79
2018-08-11T03:16:15.871Z,17.79
2018-08-11T03:19:19.465Z,17.86
2018-08-11T03:22:23.049Z,17.87
2018-08-11T03:25:26.571Z,17.89
2018-08-11T03:28:30.191Z,17.90
2018-08-11T03:31:33.787Z,17.90
2018-08-11T03:34:37.305Z,17.80
2018-08-11T03:37:40.859Z,17.87
2018-08-11T03:40:44.416Z,17.85
2018-08-11T03:43:47.933Z,17.83
2018-08-11T03:46:51.491Z,17.77
2018-08-11T03:49:55.090Z,17.81
2018-08-11T03:52:58.709Z,17.73
2018-08-11T03:56:02.227Z,17.74
2018-08-11T03:59:05.904Z,17.78
2018-08-11T04:02:12.488Z,17.75
2018-08-11T04:05:16.048Z,17.74
2018-08-11T04:08:19.673Z,17.78
2018-08-11T04:11:23.311Z,17.78
2018-08-11T04:14:26.898Z,17.71
2018-08-11T04:17:34.850Z,17.72
2018-08-11T04:20:39.400Z,17.62
2018-08-11T04:23:42.951Z,17.69
2018-08-11T04:26:46.472Z,17.66
2018-08-11T04:29:52.045Z,17.78
2018-08-11T04:32:55.596Z,17.67
2018-08-11T04:35:59.110Z,17.65
2018-08-11T04:39:03.695Z,17.67
2018-08-11T04:42:07.225Z,17.73
2018-08-11T04:45:10.678Z,17.74
2018-08-11T04:48:14.199Z,17.84
2018-08-11T04:51:17.727Z,17.85
2018-08-11T04:54:21.409Z,17.91
2018-08-11T04:57:24.960Z,17.90
2018-08-11T05:00:28.436Z,18.05
2018-08-11T05:03:31.915Z,18.03
2018-08-11T05:06:35.416Z,17.94
2018-08-11T05:09:39.932Z,17.85
2018-08-11T05:12:43.440Z,18.04
2018-08-11T05:15:46.944Z,18.07
2018-08-11T05:18:50.429Z,18.10
2018-08-11T05:21:53.942Z,18.13
2018-08-11T05:24:58.981Z,18.22
2018-08-11T05:28:03.520Z,18.21
2018-08-11T05:31:07.083Z,18.26
2018-08-11T05:34:10.608Z,18.32
2018-08-11T05:37:15.281Z,18.39
2018-08-11T05:40:20.796Z,18.24
2018-08-11T05:46:33.369Z,18.42
2018-08-11T05:49:37.103Z,18.42
2018-08-11T05:52:40.687Z,18.42
2018-08-11T05:55:44.202Z,18.43
2018-08-11T05:58:47.691Z,18.40
2018-08-11T06:01:52.224Z,18.32
2018-08-11T06:04:55.719Z,18.50
2018-08-11T06:08:00.169Z,18.54
2018-08-11T06:11:03.795Z,18.43
2018-08-11T06:14:07.988Z,18.52
2018-08-11T06:17:11.464Z,18.62
2018-08-11T06:20:15.253Z,18.66
2018-08-11T06:23:18.777Z,18.64
2018-08-11T06:26:22.461Z,18.72
2018-08-11T06:29:27.200Z,18.71
2018-08-11T06:32:30.903Z,18.71
2018-08-11T06:35:34.459Z,18.75
2018-08-11T06:38:37.994Z,18.74
2018-08-11T06:41:42.831Z,18.78
2018-08-11T06:44:46.301Z,18.88
2018-08-11T06:47:50.140Z,18.93
2018-08-11T06:50:54.640Z,18.95
2018-08-11T06:53:58.124Z,18.86
2018-08-11T06:57:01.610Z,18.95
2018-08-11T07:00:05.519Z,19.01
2018-08-11T07:03:11.107Z,19.13
2018-08-11T07:06:14.718Z,19.34
2018-08-11T07:09:18.327Z,19.45
2018-08-11T07:12:21.987Z,19.50
2018-08-11T07:15:26.587Z,19.60
2018-08-11T07:18:30.303Z,19.70
2018-08-11T07:21:34.944Z,19.72
2018-08-11T07:24:38.515Z,19.75
2018-08-11T07:27:43.180Z,19.75
2018-08-11T07:30:46.777Z,19.77
2018-08-11T07:33:50.365Z,19.87
2018-08-11T07:36:53.992Z,19.84
2018-08-11T07:39:57.660Z,19.83
2018-08-11T07:43:01.298Z,20.09
2018-08-11T07:46:04.935Z,20.10
2018-08-11T07:49:11.883Z,20.21
2018-08-11T07:52:15.897Z,20.44
2018-08-11T07:55:19.536Z,20.55
2018-08-11T07:58:24.357Z,20.74
2018-08-11T08:01:29.214Z,20.73
2018-08-11T08:04:32.771Z,20.70
2018-08-11T08:07:36.512Z,20.80
2018-08-11T08:10:40.853Z,20.75
2018-08-11T08:13:45.604Z,20.77
2018-08-11T08:16:49.128Z,20.87
2018-08-11T08:19:52.783Z,20.92
2018-08-11T08:22:56.342Z,21.13
2018-08-11T08:26:00.090Z,21.17
2018-08-11T08:29:04.592Z,21.24
2018-08-11T08:32:10.462Z,21.26
2018-08-11T08:35:14.133Z,21.44
2018-08-11T08:38:17.828Z,21.38
2018-08-11T08:41:21.449Z,21.55
2018-08-11T08:44:25.009Z,21.52
2018-08-11T08:47:31.607Z,21.46
2018-08-11T08:50:35.354Z,21.53
2018-08-11T08:53:39.948Z,21.54
2018-08-11T08:56:43.553Z,21.51
2018-08-11T08:59:47.163Z,21.54
2018-08-11T09:02:51.011Z,21.61
2018-08-11T09:05:54.688Z,21.71
2018-08-11T09:08:58.300Z,21.74
2018-08-11T09:12:03.002Z,21.81
2018-08-11T09:15:07.351Z,21.75
2018-08-11T09:18:10.918Z,21.68
2018-08-11T09:21:14.541Z,21.72
2018-08-11T09:24:18.263Z,21.60
2018-08-11T09:27:21.836Z,21.44
2018-08-11T09:30:25.461Z,21.55
2018-08-11T09:33:29.144Z,21.75
2018-08-11T09:36:32.901Z,21.81
2018-08-11T09:39:36.551Z,21.95
2018-08-11T09:42:46.735Z,22.07
2018-08-11T09:45:50.458Z,22.23
2018-08-11T09:48:54.110Z,22.31
2018-08-11T09:52:00.723Z,22.53
2018-08-11T09:55:05.534Z,22.56
2018-08-11T09:58:17.988Z,22.63
2018-08-11T10:01:26.844Z,23.00
2018-08-11T10:04:30.836Z,23.17
2018-08-11T10:07:34.591Z,23.29
2018-08-11T10:10:40.435Z,23.42
2018-08-11T10:13:44.032Z,23.46
2018-08-11T10:16:50.980Z,23.33
2018-08-11T10:20:00.062Z,23.21
2018-08-11T10:23:03.856Z,23.40
2018-08-11T10:26:07.729Z,23.34
2018-08-11T10:29:22.858Z,23.19
2018-08-11T10:32:26.490Z,23.18
2018-08-11T10:35:30.136Z,23.21
2018-08-11T10:38:34.478Z,23.09
2018-08-11T10:41:38.203Z,23.19
2018-08-11T10:44:42.540Z,23.19
2018-08-11T10:47:46.705Z,23.34
2018-08-11T10:50:50.336Z,23.64
2018-08-11T10:53:55.405Z,23.51
2018-08-11T10:57:00.398Z,23.44
2018-08-11T11:00:07.287Z,23.23
2018-08-11T11:03:10.885Z,23.34
2018-08-11T11:06:14.567Z,23.37
2018-08-11T11:09:19.574Z,23.21
2018-08-11T11:12:23.237Z,22.82
2018-08-11T11:15:26.856Z,22.71
2018-08-11T11:18:30.572Z,22.54
2018-08-11T11:21:34.108Z,22.50
2018-08-11T11:24:37.721Z,22.28
2018-08-11T11:27:41.545Z,22.53
2018-08-11T11:30:45.268Z,22.83
2018-08-11T11:33:48.879Z,23.05
2018-08-11T11:36:52.488Z,22.84
2018-08-11T11:39:56.105Z,22.98
2018-08-11T11:43:00.840Z,23.55
2018-08-11T11:46:05.513Z,23.38
2018-08-11T11:49:09.140Z,23.43
2018-08-11T11:52:12.824Z,23.14
2018-08-11T11:55:16.376Z,23.22
2018-08-11T11:58:20.665Z,23.55
2018-08-11T12:01:24.329Z,23.84
2018-08-11T12:04:28.761Z,24.47
2018-08-11T12:07:32.533Z,24.65
2018-08-11T12:10:36.108Z,24.79
2018-08-11T12:13:39.765Z,24.65
2018-08-11T12:16:44.549Z,24.50
2018-08-11T12:19:49.200Z,24.60
2018-08-11T12:22:53.917Z,24.62
2018-08-11T12:25:57.785Z,24.93
2018-08-11T12:29:01.421Z,24.81
2018-08-11T12:32:05.101Z,24.62
2018-08-11T12:35:08.800Z,24.26
2018-08-11T12:38:12.472Z,24.26
2018-08-11T12:41:16.111Z,24.05
2018-08-11T12:44:19.701Z,24.40
2018-08-11T12:47:23.314Z,24.36
2018-08-11T12:50:27.180Z,24.67
2018-08-11T12:53:31.031Z,24.66
2018-08-11T12:56:35.106Z,24.27
2018-08-11T12:59:39.585Z,24.26
2018-08-11T13:02:57.281Z,23.79
2018-08-11T13:06:02.350Z,24.11
2018-08-11T13:09:09.238Z,24.42
2018-08-11T13:12:12.832Z,24.83
2018-08-11T13:15:16.609Z,25.19
2018-08-11T13:18:20.333Z,25.24
2018-08-11T13:21:23.996Z,25.37
2018-08-11T13:24:34.782Z,25.39
2018-08-11T13:27:39.433Z,25.64
2018-08-11T13:30:43.044Z,25.90
2018-08-11T13:33:47.709Z,25.74
2018-08-11T13:36:58.790Z,25.86
2018-08-11T13:40:02.803Z,26.06
2018-08-11T13:43:09.618Z,26.04
2018-08-11T13:46:14.002Z,26.36
2018-08-11T13:49:19.692Z,26.02
2018-08-11T13:52:23.324Z,26.17
2018-08-11T13:55:27.644Z,25.79
2018-08-11T13:58:31.788Z,25.69
2018-08-11T14:01:35.825Z,25.77
2018-08-11T14:04:39.688Z,25.71
2018-08-11T14:07:52.914Z,25.65
2018-08-11T14:10:57.027Z,25.96
2018-08-11T14:14:00.712Z,26.14
2018-08-11T14:17:05.511Z,25.53
2018-08-11T14:20:09.935Z,25.63
2018-08-11T14:23:13.668Z,25.83
2018-08-11T14:26:23.713Z,25.60
2018-08-11T14:29:27.430Z,25.91
2018-08-11T14:32:31.632Z,25.83
2018-08-11T14:35:37.828Z,25.28
2018-08-11T14:38:41.517Z,25.04
2018-08-11T14:41:45.212Z,24.73
2018-08-11T14:44:48.844Z,24.53
2018-08-11T14:47:52.584Z,24.73
2018-08-11T14:50:56.193Z,24.90
2018-08-11T14:53:59.781Z,24.93
2018-08-11T14:57:03.512Z,25.08
2018-08-11T15:00:12.147Z,24.94
2018-08-11T15:03:15.745Z,24.70
2018-08-11T15:06:19.311Z,24.50
2018-08-11T15:09:23.062Z,24.64
2018-08-11T15:12:26.669Z,24.54
2018-08-11T15:15:31.037Z,24.41
2018-08-11T15:18:34.683Z,24.06
2018-08-11T15:21:38.281Z,24.22
2018-08-11T15:24:43.529Z,24.60
2018-08-11T15:27:49.163Z,24.63
2018-08-11T15:30:53.810Z,24.66
2018-08-11T15:37:12.327Z,24.61
2018-08-11T15:40:16.182Z,24.83
2018-08-11T15:43:20.469Z,24.78
2018-08-11T15:46:26.908Z,24.75
2018-08-11T15:49:31.300Z,24.61
2018-08-11T15:52:35.716Z,24.63
2018-08-11T15:55:45.201Z,24.56
2018-08-11T15:58:48.708Z,24.48
2018-08-11T16:01:52.216Z,24.51
2018-08-11T16:04:55.832Z,24.42
2018-08-11T16:08:00.490Z,24.54
2018-08-11T16:11:09.318Z,24.42
2018-08-11T16:14:18.092Z,24.34
2018-08-11T16:17:23.208Z,24.21
2018-08-11T16:20:26.940Z,24.03
2018-08-11T16:23:30.497Z,24.03
2018-08-11T16:26:34.007Z,24.00
2018-08-11T16:29:38.588Z,23.97
2018-08-11T16:32:42.189Z,23.99
2018-08-11T16:35:50.425Z,23.90
2018-08-11T16:38:54.707Z,23.99
2018-08-11T16:41:58.481Z,23.76
2018-08-11T16:45:03.750Z,23.81
2018-08-11T16:48:09.131Z,23.68
2018-08-11T16:51:12.700Z,23.63
2018-08-11T16:54:21.814Z,23.54
2018-08-11T16:57:25.834Z,23.49
2018-08-11T17:00:37.922Z,23.44
2018-08-11T17:03:41.597Z,23.06
2018-08-11T17:06:45.217Z,22.94
2018-08-11T17:09:49.472Z,22.83
2018-08-11T17:12:57.243Z,22.79
2018-08-11T17:16:01.864Z,22.72
2018-08-11T17:19:05.640Z,22.37
2018-08-11T17:22:09.280Z,22.20
2018-08-11T17:25:13.783Z,22.18
2018-08-11T17:28:17.446Z,21.99
2018-08-11T17:31:20.988Z,22.00
2018-08-11T17:34:24.480Z,22.12
2018-08-11T17:37:29.190Z,22.01
2018-08-11T17:40:32.920Z,22.10
2018-08-11T17:43:36.439Z,22.14
2018-08-11T17:46:41.416Z,21.95
2018-08-11T17:49:45.040Z,22.01
2018-08-11T17:52:48.611Z,22.03
2018-08-11T17:55:53.788Z,21.78
2018-08-11T17:58:57.353Z,21.91
2018-08-11T18:02:01.023Z,21.85
2018-08-11T18:05:09.241Z,21.89
2018-08-11T18:15:30.621Z,21.51
2018-08-11T18:18:36.165Z,21.37
2018-08-11T18:50:07.940Z,20.77
2018-08-11T19:00:14.511Z,20.65
2018-08-11T19:03:22.511Z,20.61
2018-08-11T19:06:26.834Z,20.57
2018-08-11T19:09:40.527Z,20.54
2018-08-11T19:12:48.300Z,20.42
2018-08-11T19:16:01.552Z,20.48
2018-08-11T19:19:10.522Z,20.46
2018-08-11T19:53:49.878Z,20.09
2018-08-11T19:57:00.556Z,20.04
2018-08-11T20:00:10.660Z,19.87
2018-08-11T20:05:17.491Z,19.90
2018-08-11T20:08:24.010Z,19.76
2018-08-11T20:11:28.758Z,19.75
2018-08-11T20:14:39.904Z,19.79
2018-08-11T20:17:47.985Z,19.72
2018-08-11T20:20:57.833Z,19.67
2018-08-11T20:24:14.401Z,19.64
2018-08-11T20:52:50.425Z,19.43
2018-08-11T20:55:59.983Z,19.33
2018-08-11T20:59:17.056Z,19.27
2018-08-11T21:09:26.297Z,19.24
2018-08-11T21:12:33.218Z,19.27
2018-08-11T21:15:38.590Z,19.21
2018-08-11T21:18:42.674Z,19.18
2018-08-11T21:21:50.382Z,19.20
2018-08-11T21:24:55.480Z,19.11
2018-08-11T21:28:02.209Z,19.13
2018-08-11T21:31:06.943Z,19.06
2018-08-11T21:34:11.165Z,19.04
2018-08-11T21:37:16.531Z,19.05
2018-08-11T21:40:24.344Z,19.01
2018-08-11T21:43:34.004Z,18.96
2018-08-11T21:46:43.036Z,18.92
2018-08-11T22:11:01.688Z,18.74
2018-08-11T22:14:17.901Z,18.74
2018-08-11T22:17:23.332Z,18.69
2018-08-11T22:20:31.126Z,18.70
2018-08-11T22:23:37.205Z,18.67
2018-08-11T22:26:43.540Z,18.72
2018-08-11T22:29:50.161Z,18.60
2018-08-11T22:32:57.260Z,18.57
2018-08-11T22:36:03.520Z,18.57
2018-08-11T22:39:12.963Z,18.55
2018-08-11T22:42:20.743Z,18.57
2018-08-11T22:45:25.665Z,18.63
2018-08-11T22:48:44.187Z,18.53
2018-08-11T22:51:52.733Z,18.43
2018-08-11T22:55:00.830Z,18.44
2018-08-11T22:58:07.585Z,18.48
2018-08-11T23:01:15.024Z,18.44
2018-08-11T23:04:21.737Z,18.20
2018-08-11T23:07:36.183Z,18.28
2018-08-11T23:10:44.160Z,18.22
2018-08-11T23:13:47.762Z,18.15
2018-08-11T23:16:52.581Z,18.26
2018-08-11T23:19:56.177Z,18.18
2018-08-11T23:22:59.879Z,18.09
2018-08-11T23:26:03.555Z,18.20
2018-08-11T23:29:07.506Z,18.21
2018-08-11T23:32:11.605Z,18.13
2018-08-11T23:35:22.933Z,18.12
2018-08-11T23:38:26.743Z,18.05
2018-08-11T23:41:31.512Z,18.02
2018-08-11T23:44:35.398Z,17.93
2018-08-11T23:47:40.560Z,17.91
2018-08-11T23:50:44.520Z,17.91
2018-08-11T23:53:49.321Z,17.93
2018-08-11T23:56:53.163Z,17.93
2018-08-11T23:59:57.049Z,17.91
